Time;durP1;ratioP1;P1;durP2;ratioP2;P2;SDS_P1;SDS_P2;PMS_P1;PMS_P2;Temp;Humidity;BMP_temperature;BMP_pressure;BME280_temperature;BME280_humidity;BME280_pressure;Samples;Min_cycle;Max_cycle;Signal;HPM_P1;HPM_P2
2022/09/07 00:01:36;;;;;;;11.55;9.55;;;;;;;15.98;100.00;101207.91;5115103;28;20039;-44
2022/09/07 00:04:02;;;;;;;10.43;8.02;;;;;;;15.90;100.00;101200.00;5114355;28;20055;-44
2022/09/07 00:06:28;;;;;;;10.48;7.85;;;;;;;15.84;100.00;101200.81;5114918;27;20030;-43
2022/09/07 00:08:53;;;;;;;11.05;8.07;;;;;;;15.80;100.00;101201.56;5114845;28;20027;-45
2022/09/07 00:11:19;;;;;;;11.77;7.85;;;;;;;15.74;100.00;101206.69;5114029;28;20030;-44
2022/09/07 00:13:47;;;;;;;10.60;7.68;;;;;;;15.71;100.00;101196.25;5114662;28;20485;-46
2022/09/07 00:16:19;;;;;;;11.43;8.38;;;;;;;15.66;100.00;101177.09;5114830;28;20035;-44
2022/09/07 00:18:44;;;;;;;10.38;7.55;;;;;;;15.58;100.00;101166.63;5113969;28;20506;-42
2022/09/07 00:21:10;;;;;;;11.55;7.90;;;;;;;15.50;100.00;101152.66;5114560;28;20062;-48
2022/09/07 00:23:38;;;;;;;10.48;7.32;;;;;;;15.41;100.00;101146.47;5114468;28;20541;-46
2022/09/07 00:26:19;;;;;;;10.93;8.18;;;;;;;15.35;100.00;101143.78;5113702;28;20368;-44
2022/09/07 00:28:45;;;;;;;11.25;7.90;;;;;;;15.28;100.00;101155.78;5114700;28;20116;-47
2022/09/07 00:31:13;;;;;;;12.32;7.47;;;;;;;15.22;100.00;101147.03;5114394;28;20096;-44
2022/09/07 00:33:38;;;;;;;10.55;7.25;;;;;;;15.17;100.00;101144.41;5113441;28;20028;-46
2022/09/07 00:36:04;;;;;;;9.45;7.13;;;;;;;15.11;100.00;101145.16;5114110;28;20164;-44
2022/09/07 00:38:29;;;;;;;10.93;7.30;;;;;;;15.07;100.00;101143.38;5114356;28;20031;-47
2022/09/07 00:40:55;;;;;;;10.23;8.05;;;;;;;15.05;100.00;101141.59;5113524;28;20028;-44
2022/09/07 00:43:36;;;;;;;14.25;7.72;;;;;;;15.01;100.00;101156.22;5113926;28;20047;-44
2022/09/07 00:46:03;;;;;;;13.30;8.35;;;;;;;14.98;100.00;101154.47;5113397;28;20020;-43
2022/09/07 00:48:52;;;;;;;13.37;8.97;;;;;;;14.98;100.00;101153.59;5114067;28;20020;-45
2022/09/07 00:51:30;;;;;;;13.02;8.70;;;;;;;14.97;100.00;101141.47;5109571;28;20308;-44
2022/09/07 00:54:04;;;;;;;12.70;8.45;;;;;;;14.96;100.00;101140.59;5113503;28;20507;-42
2022/09/07 00:56:35;;;;;;;12.15;8.32;;;;;;;14.92;100.00;101137.94;5113930;28;20027;-45
2022/09/07 00:59:00;;;;;;;11.55;8.93;;;;;;;14.89;100.00;101127.50;5113846;28;20027;-42
2022/09/07 01:01:26;;;;;;;12.43;9.00;;;;;;;14.88;100.00;101111.03;5113134;28;20035;-42
2022/09/07 01:03:54;;;;;;;12.25;8.02;;;;;;;14.87;100.00;101105.84;5114102;28;20036;-44
2022/09/07 01:06:26;;;;;;;12.93;8.93;;;;;;;14.82;100.00;101110.94;5113533;28;20512;-42
2022/09/07 01:08:54;;;;;;;12.88;8.48;;;;;;;14.79;100.00;101114.34;5113139;28;20107;-45
2022/09/07 01:11:21;;;;;;;11.07;8.15;;;;;;;14.73;100.00;101122.06;5113480;28;20094;-45
2022/09/07 01:13:48;;;;;;;11.32;8.23;;;;;;;14.73;100.00;101116.88;5113834;28;20027;-42
2022/09/07 01:16:35;;;;;;;12.02;7.88;;;;;;;14.70;100.00;101116.81;5112712;28;20479;-42
2022/09/07 01:19:23;;;;;;;;;;;;;;;14.74;100.00;101110.81;5114072;28;20023;-42
2022/09/07 01:22:07;;;;;;;;;;;;;;;14.75;100.00;101112.56;5112834;28;19911;-44
2022/09/07 01:25:03;;;;;;;11.52;7.45;;;;;;;14.66;100.00;101096.84;5113654;28;19977;-44
2022/09/07 01:27:49;;;;;;;10.77;7.97;;;;;;;14.61;100.00;101103.66;5113473;28;20031;-44
2022/09/07 01:30:18;;;;;;;12.10;8.18;;;;;;;14.63;100.00;101114.94;5112527;28;20023;-42
2022/09/07 01:33:03;;;;;;;13.25;7.85;;;;;;;14.60;100.00;101131.31;5113774;28;20062;-44
2022/09/07 01:35:47;;;;;;;10.48;8.13;;;;;;;14.59;100.00;101139.06;5112754;28;20019;-44
2022/09/07 01:38:24;;;;;;;11.98;7.82;;;;;;;14.59;100.00;101144.25;5113230;28;20024;-42
2022/09/07 01:41:03;;;;;;;13.30;9.07;;;;;;;14.60;100.00;101125.25;5113747;28;20031;-42
2022/09/07 01:43:52;;;;;;;11.30;8.45;;;;;;;14.65;100.00;101110.66;5112497;28;20075;-41
2022/09/07 01:46:24;;;;;;;15.50;9.25;;;;;;;14.64;100.00;101116.69;5113288;28;20020;-44
2022/09/07 01:48:52;;;;;;;9.52;8.05;;;;;;;14.61;100.00;101111.44;5111993;28;20027;-42
2022/09/07 01:51:20;;;;;;;11.82;8.02;;;;;;;14.61;100.00;101108.84;5112496;28;20042;-42
2022/09/07 01:53:56;;;;;;;11.65;7.43;;;;;;;14.58;100.00;101111.38;5113065;28;20118;-43
2022/09/07 01:56:31;;;;;;;10.38;7.95;;;;;;;14.60;100.00;101107.09;5112320;28;20038;-43
2022/09/07 01:59:03;;;;;;;10.70;8.23;;;;;;;14.58;100.00;101119.16;5113204;28;20040;-44
2022/09/07 02:01:43;;;;;;;10.25;7.95;;;;;;;14.60;100.00;101120.06;5112805;28;20115;-44
2022/09/07 02:04:18;;;;;;;12.80;9.77;;;;;;;14.71;100.00;101121.16;5111327;28;20028;-42
2022/09/07 02:07:04;;;;;;;10.88;8.80;;;;;;;14.71;100.00;101120.28;5113105;28;20023;-44
2022/09/07 02:09:50;;;;;;;11.10;8.93;;;;;;;14.76;100.00;101122.09;5112851;28;20133;-42
2022/09/07 02:12:35;;;;;;;10.38;8.43;;;;;;;14.70;100.00;101127.19;5110312;28;20439;-42
2022/09/07 02:15:06;;;;;;;9.25;7.85;;;;;;;14.73;100.00;101127.25;5113029;28;20028;-42
2022/09/07 02:17:35;;;;;;;11.57;8.52;;;;;;;14.73;100.00;101122.06;5110532;28;20337;-41
2022/09/07 02:20:16;;;;;;;10.80;9.45;;;;;;;14.82;100.00;101123.91;5092379;28;20024;-42
2022/09/07 02:22:46;;;;;;;11.38;8.80;;;;;;;14.74;100.00;101120.31;5092426;28;20438;-45
2022/09/07 02:25:20;;;;;;;11.57;8.70;;;;;;;14.72;100.00;101112.53;5092098;28;20020;-43
2022/09/07 02:27:50;;;;;;;11.15;8.77;;;;;;;14.69;100.00;101107.25;5092546;28;20356;-44
2022/09/07 02:30:16;;;;;;;10.57;7.93;;;;;;;14.61;100.00;101095.88;5092293;28;20020;-42
2022/09/07 02:32:41;;;;;;;11.20;8.70;;;;;;;14.63;100.00;101099.38;5091198;28;20108;-43
2022/09/07 02:35:08;;;;;;;9.00;8.05;;;;;;;14.60;100.00;101105.38;5095119;28;20399;-42
2022/09/07 02:37:35;;;;;;;9.90;8.18;;;;;;;14.56;100.00;101106.16;5096065;28;20036;-41
2022/09/07 02:40:01;;;;;;;11.68;9.52;;;;;;;14.58;100.00;101106.19;5115212;28;20063;-43
2022/09/07 02:42:30;;;;;;;12.73;9.75;;;;;;;14.51;100.00;101114.72;5116431;28;20068;-42
2022/09/07 02:44:56;;;;;;;12.38;9.93;;;;;;;14.57;100.00;101117.41;5116700;28;20029;-42
2022/09/07 02:47:31;;;;;;;12.38;10.02;;;;;;;14.54;100.00;101114.75;5115123;28;20394;-41
2022/09/07 02:50:29;;;;;;;12.10;10.32;;;;;;;14.53;100.00;101113.03;5096382;28;20032;-41
2022/09/07 02:53:16;;;;;;;11.45;10.23;;;;;;;14.48;100.00;101110.34;5087328;28;20068;-41
2022/09/07 02:55:55;;;;;;;12.30;10.35;;;;;;;14.48;100.00;101110.34;5095948;28;20059;-45
2022/09/07 02:58:44;;;;;;;13.40;11.30;;;;;;;14.47;100.00;101112.06;5096001;28;20032;-42
2022/09/07 03:01:34;;;;;;;16.35;11.77;;;;;;;14.47;100.00;101122.44;5094966;28;20444;-42
2022/09/07 03:04:13;;;;;;;13.90;11.48;;;;;;;14.47;100.00;101106.00;5110144;28;20030;-42
2022/09/07 03:07:04;;;;;;;14.45;12.10;;;;;;;14.48;100.00;101120.72;5095132;28;20032;-46
2022/09/07 03:09:37;;;;;;;14.40;12.48;;;;;;;14.47;100.00;101119.84;5095679;28;20081;-42
2022/09/07 03:12:04;;;;;;;13.55;11.85;;;;;;;14.44;100.00;101114.59;5102343;28;20026;-42
2022/09/07 03:14:32;;;;;;;16.50;13.38;;;;;;;14.54;100.00;101106.97;5115056;28;20016;-44
2022/09/07 03:16:58;;;;;;;15.80;13.57;;;;;;;14.57;100.00;101110.50;5116311;28;20024;-42
2022/09/07 03:19:24;;;;;;;14.30;12.85;;;;;;;14.59;100.00;101105.31;5112512;28;20035;-42
2022/09/07 03:21:49;;;;;;;15.45;13.02;;;;;;;14.63;100.00;101108.00;5115138;27;20031;-42
2022/09/07 03:24:14;;;;;;;15.95;12.60;;;;;;;14.68;100.00;101110.72;5115665;28;20427;-43
2022/09/07 03:26:43;;;;;;;14.00;11.60;;;;;;;14.66;100.00;101109.81;5115576;28;20038;-42
2022/09/07 03:29:09;;;;;;;15.25;12.63;;;;;;;14.72;100.00;101101.25;5114780;28;20020;-42
2022/09/07 03:31:35;;;;;;;15.60;11.48;;;;;;;14.76;100.00;101103.94;5115670;28;20072;-42
2022/09/07 03:34:00;;;;;;;16.00;12.98;;;;;;;14.82;100.00;101110.94;5114400;28;20027;-42
2022/09/07 03:36:26;;;;;;;16.75;11.82;;;;;;;14.81;100.00;101106.63;5114869;28;20073;-43
2022/09/07 03:38:51;;;;;;;13.93;12.18;;;;;;;14.80;100.00;101102.28;5115584;28;20115;-42
2022/09/07 03:41:16;;;;;;;13.02;11.63;;;;;;;14.78;100.00;101098.78;5115220;28;20122;-42
2022/09/07 03:43:42;;;;;;;14.63;12.18;;;;;;;14.80;100.00;101097.94;5114526;28;20486;-41
2022/09/07 03:46:09;;;;;;;14.48;11.63;;;;;;;14.72;100.00;101107.34;5113913;28;20106;-42
2022/09/07 03:48:35;;;;;;;15.13;11.82;;;;;;;14.65;100.00;101098.59;5114267;27;20409;-42
2022/09/07 03:51:07;;;;;;;15.17;12.30;;;;;;;14.68;100.00;101112.44;5114882;28;20034;-43
2022/09/07 03:53:38;;;;;;;16.98;13.35;;;;;;;14.67;100.00;101110.69;5115215;28;20032;-42
2022/09/07 03:56:09;;;;;;;17.95;13.75;;;;;;;14.69;100.00;101116.78;5114349;28;20051;-43
2022/09/07 03:58:34;;;;;;;20.00;14.25;;;;;;;14.72;100.00;101109.03;5115264;28;20156;-42
2022/09/07 04:01:05;;;;;;;14.88;13.05;;;;;;;14.68;100.00;101102.94;5115024;28;20031;-42
2022/09/07 04:03:30;;;;;;;15.68;13.30;;;;;;;14.64;100.00;101099.44;5113736;28;20038;-42
2022/09/07 04:05:59;;;;;;;14.98;12.88;;;;;;;14.65;100.00;101095.09;5115001;28;20027;-43
2022/09/07 04:08:26;;;;;;;15.38;11.70;;;;;;;14.60;100.00;101081.16;5114660;28;20028;-42
2022/09/07 04:10:52;;;;;;;15.73;12.95;;;;;;;14.55;100.00;101086.28;5114467;28;20020;-41
2022/09/07 04:13:17;;;;;;;14.85;12.55;;;;;;;14.59;100.00;101077.69;5113446;28;20039;-42
2022/09/07 04:15:42;;;;;;;18.98;13.90;;;;;;;14.67;100.00;101079.56;5113217;28;20536;-41
2022/09/07 04:18:07;;;;;;;15.43;12.75;;;;;;;14.59;100.00;101079.38;5112681;28;20024;-43
2022/09/07 04:20:33;;;;;;;15.63;12.48;;;;;;;14.53;100.00;101074.13;5114479;28;20458;-42
2022/09/07 04:22:58;;;;;;;18.27;12.02;;;;;;;14.48;100.00;101067.13;5114671;28;20025;-43
2022/09/07 04:25:23;;;;;;;17.67;13.50;;;;;;;14.47;100.00;101068.00;5113806;28;20061;-42
2022/09/07 04:27:49;;;;;;;15.73;12.40;;;;;;;14.46;100.00;101066.22;5114856;28;20062;-42
2022/09/07 04:30:14;;;;;;;15.90;12.25;;;;;;;14.42;100.00;101066.16;5114504;28;20043;-42
2022/09/07 04:32:39;;;;;;;16.55;14.75;;;;;;;14.49;100.00;101063.69;5108312;28;20024;-46
2022/09/07 04:35:05;;;;;;;16.98;14.40;;;;;;;14.44;100.00;101080.88;5093513;28;20017;-43
2022/09/07 04:37:30;;;;;;;20.95;15.20;;;;;;;14.44;100.00;101083.47;5093744;28;20034;-44
2022/09/07 04:39:56;;;;;;;20.52;15.43;;;;;;;14.41;100.00;101083.44;5093145;28;20027;-44
2022/09/07 04:42:21;;;;;;;19.10;16.08;;;;;;;14.46;100.00;101079.19;5111169;28;20455;-43
2022/09/07 04:44:49;;;;;;;18.67;15.93;;;;;;;14.45;100.00;101090.41;5114608;28;20111;-43
2022/09/07 04:47:16;;;;;;;21.77;16.48;;;;;;;14.43;100.00;101081.72;5113371;28;20027;-43
2022/09/07 04:49:41;;;;;;;30.33;17.70;;;;;;;14.42;100.00;101084.28;5112949;28;20589;-41
2022/09/07 04:52:07;;;;;;;24.10;18.75;;;;;;;14.43;100.00;101083.44;5113082;28;20098;-42
2022/09/07 04:54:32;;;;;;;24.02;18.17;;;;;;;14.39;100.00;101076.47;5114051;28;20379;-45
2022/09/07 04:56:57;;;;;;;19.92;17.70;;;;;;;14.32;100.00;101067.72;5113217;28;20039;-43
2022/09/07 04:59:23;;;;;;;23.88;18.45;;;;;;;14.30;100.00;101074.59;5113157;28;20049;-42
2022/09/07 05:01:48;;;;;;;20.33;16.88;;;;;;;14.28;100.00;101071.06;5114010;28;20020;-44
2022/09/07 05:04:13;;;;;;;22.92;18.63;;;;;;;14.26;100.00;101072.78;5112806;28;20036;-42
2022/09/07 05:06:38;;;;;;;25.13;18.63;;;;;;;14.24;100.00;101079.66;5112991;28;20527;-42
2022/09/07 05:09:04;;;;;;;21.73;18.88;;;;;;;14.23;100.00;101068.44;5112153;28;20028;-41
2022/09/07 05:11:29;;;;;;;23.45;19.73;;;;;;;14.28;100.00;101078.84;5113656;28;20024;-43
2022/09/07 05:13:58;;;;;;;24.70;20.50;;;;;;;14.35;100.00;101082.47;5095495;28;20046;-42
2022/09/07 05:16:25;;;;;;;24.70;19.75;;;;;;;14.36;100.00;101072.09;5093164;28;20035;-43
2022/09/07 05:18:56;;;;;;;25.63;20.13;;;;;;;14.40;100.00;101071.31;5093527;28;20406;-43
2022/09/07 05:21:28;;;;;;;27.88;19.05;;;;;;;14.40;100.00;101073.91;5091627;28;20047;-46
2022/09/07 05:23:56;;;;;;;26.63;18.98;;;;;;;14.47;100.00;101078.38;5093470;28;20024;-42
2022/09/07 05:26:23;;;;;;;22.45;18.48;;;;;;;14.48;100.00;101085.28;5092636;28;20024;-42
2022/09/07 05:28:48;;;;;;;24.77;18.88;;;;;;;14.48;100.00;101084.41;5092336;28;20532;-43
2022/09/07 05:31:16;;;;;;;20.75;18.15;;;;;;;14.48;100.00;101089.59;5092895;28;20027;-42
2022/09/07 05:33:50;;;;;;;22.20;18.17;;;;;;;14.53;100.00;101087.09;5092951;28;20036;-42
2022/09/07 05:36:16;;;;;;;21.17;18.75;;;;;;;14.52;100.00;101080.16;5092245;28;20016;-42
2022/09/07 05:38:42;;;;;;;22.55;17.38;;;;;;;14.48;100.00;101090.47;5093184;28;20111;-41
2022/09/07 05:41:21;;;;;;;23.15;17.58;;;;;;;14.51;100.00;101083.59;5092665;28;20448;-42
2022/09/07 05:43:48;;;;;;;23.00;17.02;;;;;;;14.45;100.00;101084.38;5092777;28;20503;-44
2022/09/07 05:46:14;;;;;;;22.67;16.80;;;;;;;14.41;100.00;101093.81;5092601;28;20359;-41
2022/09/07 05:48:40;;;;;;;20.58;16.83;;;;;;;14.41;100.00;101095.50;5091988;28;20028;-44
2022/09/07 05:51:06;;;;;;;21.13;18.45;;;;;;;14.48;100.00;101090.47;5092934;28;20028;-41
2022/09/07 05:53:35;;;;;;;22.35;19.60;;;;;;;14.52;100.00;101093.97;5092943;28;20036;-42
2022/09/07 05:56:01;;;;;;;23.02;20.27;;;;;;;14.61;100.00;101101.06;5091994;28;20056;-41
2022/09/07 05:58:27;;;;;;;22.15;19.80;;;;;;;14.66;100.00;101094.25;5092711;28;20024;-42
2022/09/07 06:01:10;;;;;;;25.70;20.00;;;;;;;14.67;100.00;101098.59;5092779;28;20020;-43
2022/09/07 06:03:37;;;;;;;25.50;20.33;;;;;;;14.72;100.00;101099.56;5092099;28;20035;-44
2022/09/07 06:06:05;;;;;;;22.48;18.35;;;;;;;14.70;100.00;101100.38;5092778;28;20021;-42
2022/09/07 06:08:31;;;;;;;22.60;19.13;;;;;;;14.68;100.00;101102.06;5094598;28;20036;-41
2022/09/07 06:10:57;;;;;;;23.73;19.90;;;;;;;14.69;100.00;101099.47;5096358;28;20555;-41
2022/09/07 06:13:22;;;;;;;23.08;19.77;;;;;;;14.75;100.00;101111.69;5096498;28;20122;-42
2022/09/07 06:15:50;;;;;;;23.95;21.30;;;;;;;14.82;100.00;101111.84;5100075;28;20036;-41
2022/09/07 06:18:15;;;;;;;26.52;23.20;;;;;;;14.89;100.00;101117.13;5115280;28;20022;-44
2022/09/07 06:20:41;;;;;;;30.27;24.95;;;;;;;14.96;100.00;101118.94;5116627;28;20020;-44
2022/09/07 06:23:06;;;;;;;26.30;22.60;;;;;;;14.96;100.00;101113.75;5116587;28;20419;-42
2022/09/07 06:25:32;;;;;;;28.63;24.05;;;;;;;15.01;100.00;101116.44;5115972;28;20020;-43
2022/09/07 06:27:58;;;;;;;31.08;24.80;;;;;;;15.07;100.00;101122.59;5116622;28;20102;-42
2022/09/07 06:30:24;;;;;;;28.77;24.92;;;;;;;15.07;100.00;101122.59;5115885;28;20431;-41
2022/09/07 06:32:49;;;;;;;29.67;25.10;;;;;;;15.12;100.00;101126.13;5116688;28;20720;-42
2022/09/07 06:35:14;;;;;;;33.05;25.13;;;;;;;15.21;100.00;101124.50;5116581;28;20486;-41
2022/09/07 06:37:40;;;;;;;30.90;26.52;;;;;;;15.23;100.00;101123.69;5115801;28;20027;-42
2022/09/07 06:40:07;;;;;;;36.40;28.85;;;;;;;15.38;100.00;101123.06;5116621;28;20035;-41
2022/09/07 06:42:32;;;;;;;36.65;28.13;;;;;;;15.42;100.00;101127.44;5116285;28;20062;-41
2022/09/07 06:44:57;;;;;;;35.67;30.38;;;;;;;15.57;100.00;101133.69;5115978;28;20359;-42
2022/09/07 06:47:23;;;;;;;32.78;29.05;;;;;;;15.54;100.00;101125.88;5116407;28;20015;-43
2022/09/07 06:49:49;;;;;;;38.55;29.67;;;;;;;15.53;100.00;101127.59;5116357;28;20405;-41
2022/09/07 06:52:14;;;;;;;36.08;30.17;;;;;;;15.52;100.00;101128.44;5115598;28;20024;-42
2022/09/07 06:54:41;;;;;;;43.45;33.08;;;;;;;15.50;100.00;101132.72;5116302;28;20027;-43
2022/09/07 06:57:07;;;;;;;37.72;31.67;;;;;;;15.50;100.00;101131.88;5116189;28;20035;-42
2022/09/07 06:59:33;;;;;;;46.15;36.10;;;;;;;15.59;100.00;101129.41;5115358;28;20046;-42
2022/09/07 07:01:58;;;;;;;54.70;40.90;;;;;;;15.65;100.00;101132.09;5116198;28;20463;-43
2022/09/07 07:04:24;;;;;;;57.75;42.83;;;;;;;15.71;100.00;101137.38;5116089;28;20035;-42
2022/09/07 07:06:49;;;;;;;57.83;41.90;;;;;;;15.75;100.00;101139.16;5115461;28;20022;-45
2022/09/07 07:09:14;;;;;;;58.33;42.45;;;;;;;15.76;100.00;101140.00;5116022;28;20028;-41
2022/09/07 07:11:42;;;;;;;66.47;46.15;;;;;;;15.80;100.00;101132.28;5115963;28;20364;-41
2022/09/07 07:14:09;;;;;;;;;;;;;;;15.87;100.00;101141.06;5115562;28;20089;-41
2022/09/07 07:16:34;;;;;;;71.97;48.30;;;;;;;15.90;100.00;101150.63;5116092;28;20002;-42
2022/09/07 07:19:00;;;;;;;69.82;49.40;;;;;;;15.98;100.00;101135.97;5115658;28;20158;-41
2022/09/07 07:21:25;;;;;;;71.25;50.83;;;;;;;16.14;100.00;101137.03;5114481;28;20027;-42
2022/09/07 07:23:52;;;;;;;76.68;52.85;;;;;;;16.46;100.00;101142.59;5102448;28;20085;-41
2022/09/07 07:26:21;;;;;;;63.40;47.25;;;;;;;16.53;100.00;101134.84;5113777;28;20094;-41
2022/09/07 07:28:48;;;;;;;66.00;48.13;;;;;;;16.81;100.00;101124.66;5115198;28;20019;-44
2022/09/07 07:31:16;;;;;;;59.80;45.50;;;;;;;16.96;100.00;101140.44;5102772;28;20105;-40
2022/09/07 07:33:42;;;;;;;55.05;43.97;;;;;;;17.10;100.00;101137.94;5102654;28;20115;-42
2022/09/07 07:36:08;;;;;;;46.60;37.70;;;;;;;17.06;100.00;101144.84;5103859;28;20115;-44
2022/09/07 07:38:33;;;;;;;46.00;37.95;;;;;;;17.10;100.00;101153.56;5108003;28;20354;-42
2022/09/07 07:40:58;;;;;;;47.92;39.38;;;;;;;17.11;100.00;101160.53;5094674;28;20089;-41
2022/09/07 07:43:24;;;;;;;47.28;37.88;;;;;;;17.19;100.00;101160.59;5108107;28;20044;-41
2022/09/07 07:45:49;;;;;;;41.92;36.05;;;;;;;17.26;100.00;101154.53;5096317;28;20423;-41
2022/09/07 07:48:14;;;;;;;45.65;39.33;;;;;;;17.27;100.00;101157.19;5093748;28;20093;-41
2022/09/07 07:50:40;;;;;;;43.22;36.63;;;;;;;17.35;100.00;101152.03;5094814;28;20031;-40
2022/09/07 07:53:05;;;;;;;44.13;37.00;;;;;;;17.43;100.00;101163.34;5094502;28;20077;-40
2022/09/07 07:55:31;;;;;;;41.25;35.58;;;;;;;17.59;100.00;101160.84;5101214;28;20027;-40
2022/09/07 07:57:56;;;;;;;39.60;35.22;;;;;;;17.64;100.00;101166.94;5098425;28;20056;-41
2022/09/07 08:00:21;;;;;;;36.78;31.20;;;;;;;17.82;100.00;101165.28;5111716;28;20043;-41
2022/09/07 08:02:47;;;;;;;33.47;29.58;;;;;;;17.81;100.00;101164.41;5109807;28;20024;-41
2022/09/07 08:05:12;;;;;;;33.08;29.58;;;;;;;17.96;100.00;101175.81;5099095;28;20534;-41
2022/09/07 08:07:37;;;;;;;32.20;28.58;;;;;;;17.96;100.00;101174.09;5102789;28;20031;-42
2022/09/07 08:10:03;;;;;;;33.25;28.98;;;;;;;18.04;100.00;101172.38;5107004;27;20073;-42
2022/09/07 08:12:30;;;;;;;34.30;29.70;;;;;;;18.15;100.00;101176.75;5102876;28;20124;-41
2022/09/07 08:14:55;;;;;;;33.10;28.17;;;;;;;18.17;100.00;101178.50;5110676;27;20028;-40
2022/09/07 08:17:20;;;;;;;30.70;25.80;;;;;;;18.19;99.32;101178.50;5105123;28;20240;-41
2022/09/07 08:19:46;;;;;;;32.58;27.20;;;;;;;18.37;99.77;101181.19;5098321;28;20034;-40
2022/09/07 08:22:12;;;;;;;31.38;26.08;;;;;;;18.44;99.01;101182.06;5100253;28;20409;-42
2022/09/07 08:24:38;;;;;;;30.40;25.42;;;;;;;18.53;98.58;101182.09;5105796;27;20111;-41
2022/09/07 08:27:03;;;;;;;28.45;24.90;;;;;;;18.68;99.14;101186.47;5105362;28;20040;-44
2022/09/07 08:29:30;;;;;;;30.17;25.33;;;;;;;18.72;97.41;101187.31;5108118;28;20031;-44
2022/09/07 08:31:55;;;;;;;28.35;25.08;;;;;;;18.78;96.97;101183.88;5110368;28;20581;-42
2022/09/07 08:34:21;;;;;;;30.88;24.60;;;;;;;18.90;98.27;101183.91;5114171;28;20106;-41
2022/09/07 08:36:46;;;;;;;28.05;24.95;;;;;;;18.99;96.66;101183.94;5114342;28;20031;-42
2022/09/07 08:39:12;;;;;;;27.60;24.63;;;;;;;19.16;95.68;101188.25;5113351;27;20027;-45
2022/09/07 08:42:06;;;;;;;25.90;23.13;;;;;;;19.26;95.69;101187.38;5114440;28;20478;-43
2022/09/07 08:44:44;;;;;;;24.30;21.80;;;;;;;19.37;93.38;101193.47;5113605;27;20104;-42
2022/09/07 08:47:47;;;;;;;25.45;22.73;;;;;;;19.53;94.18;101193.44;5114191;28;20035;-42
2022/09/07 08:50:44;;;;;;;24.33;21.60;;;;;;;19.80;91.65;101202.09;5098913;28;20085;-43
2022/09/07 08:53:15;;;;;;;25.90;22.60;;;;;;;19.85;90.86;101197.75;5112386;28;20445;-41
2022/09/07 08:55:48;;;;;;;26.92;22.63;;;;;;;19.86;88.96;101199.50;5099031;28;20035;-41
2022/09/07 08:58:24;;;;;;;25.88;21.80;;;;;;;19.85;87.85;101195.13;5091466;28;20635;-41
2022/09/07 09:00:50;;;;;;;24.58;21.95;;;;;;;19.85;88.56;101197.75;5095670;27;20471;-41
2022/09/07 09:03:26;;;;;;;25.15;21.85;;;;;;;19.87;89.34;101209.06;5101430;28;20040;-41
2022/09/07 09:06:06;;;;;;;22.67;20.27;;;;;;;20.02;89.73;101203.78;5109262;28;20028;-40
2022/09/07 09:08:45;;;;;;;23.80;21.23;;;;;;;20.07;88.87;101202.00;5107854;28;20119;-42
2022/09/07 09:11:34;;;;;;;23.52;21.05;;;;;;;20.30;86.87;101200.19;5101725;28;20027;-43
2022/09/07 09:14:28;;;;;;;23.75;21.10;;;;;;;20.58;85.71;101197.41;5112813;28;20054;-42
2022/09/07 09:17:02;;;;;;;20.35;17.95;;;;;;;20.79;84.15;101205.16;5108871;28;20042;-40
2022/09/07 09:19:33;;;;;;;20.85;17.67;;;;;;;20.84;83.08;101200.75;5105259;28;20035;-42
2022/09/07 09:22:24;;;;;;;20.73;17.42;;;;;;;20.99;83.27;101198.88;5096824;28;20133;-40
2022/09/07 09:25:21;;;;;;;18.35;15.73;;;;;;;21.32;83.11;101197.72;5106336;28;20106;-41
2022/09/07 09:27:48;;;;;;;19.70;15.15;;;;;;;21.07;78.63;101209.28;5103109;28;20115;-41
2022/09/07 09:30:20;;;;;;;20.48;14.55;;;;;;;21.27;77.05;101199.50;5108325;28;20491;-42
2022/09/07 09:32:47;;;;;;;21.20;14.63;;;;;;;21.44;77.74;101206.34;5102659;28;20028;-42
2022/09/07 09:35:33;;;;;;;17.55;14.70;;;;;;;21.64;77.45;101201.81;5112606;28;20030;-40
2022/09/07 09:37:58;;;;;;;16.95;12.82;;;;;;;22.30;73.95;101200.13;5094437;28;20103;-40
2022/09/07 09:40:33;;;;;;;14.75;12.45;;;;;;;22.48;72.36;101199.03;5102106;28;20102;-41
2022/09/07 09:43:06;;;;;;;15.23;11.15;;;;;;;22.77;70.18;101197.72;5100108;28;20460;-42
2022/09/07 09:45:41;;;;;;;16.33;12.25;;;;;;;23.01;69.64;101200.84;5100576;28;20055;-43
2022/09/07 09:48:16;;;;;;;14.00;11.60;;;;;;;23.33;64.86;101210.84;5097840;28;20051;-43
2022/09/07 09:50:47;;;;;;;14.52;10.70;;;;;;;23.94;63.69;101200.06;5112162;28;20043;-42
2022/09/07 09:53:33;;;;;;;11.68;9.18;;;;;;;24.29;64.82;101198.44;5111668;28;20024;-44
2022/09/07 09:56:00;;;;;;;12.35;9.15;;;;;;;24.51;60.44;101199.75;5112077;28;20024;-42
2022/09/07 09:58:31;;;;;;;;;;;;;;;25.14;62.39;101198.25;5096616;28;20024;-44
2022/09/07 10:01:01;;;;;;;12.45;8.75;;;;;;;25.47;55.98;101200.91;5103067;28;19937;-42
2022/09/07 10:03:29;;;;;;;13.20;7.68;;;;;;;26.29;54.60;101201.25;5107656;28;20032;-43
2022/09/07 10:05:54;;;;;;;;;;;;;;;26.70;60.98;101193.81;5092666;28;20051;-45
2022/09/07 10:08:23;;;;;;;11.32;6.82;;;;;;;26.76;52.88;101190.13;5103575;28;20404;-42
2022/09/07 10:11:12;;;;;;;12.00;6.80;;;;;;;27.32;57.17;101193.53;5094969;28;20024;-41
2022/09/07 10:13:56;;;;;;;13.93;6.32;;;;;;;27.79;54.62;101190.13;5098084;28;20115;-41
2022/09/07 10:16:39;;;;;;;13.55;5.85;;;;;;;28.29;50.44;101194.41;5107860;28;20020;-42
2022/09/07 10:19:04;;;;;;;11.68;5.25;;;;;;;27.55;49.20;101180.38;5112519;28;20054;-41
2022/09/07 10:21:31;;;;;;;9.05;4.85;;;;;;;27.11;48.94;101180.13;5112292;28;20317;-42
2022/09/07 10:24:05;;;;;;;12.05;5.05;;;;;;;27.35;50.16;101178.41;5102526;28;20024;-46
2022/09/07 10:26:36;;;;;;;11.57;4.90;;;;;;;27.72;46.78;101181.53;5092303;28;20024;-47
2022/09/07 10:29:05;;;;;;;14.20;4.72;;;;;;;27.08;48.81;101183.75;5092538;28;20035;-43
2022/09/07 10:31:35;;;;;;;11.07;4.75;;;;;;;26.56;48.26;101183.66;5091699;28;20031;-43
2022/09/07 10:34:12;;;;;;;14.43;4.55;;;;;;;26.80;49.49;101178.50;5092266;28;20032;-42
2022/09/07 10:37:03;;;;;;;9.85;4.05;;;;;;;27.53;47.86;101176.91;5091529;28;20426;-45
2022/09/07 10:39:40;;;;;;;12.15;3.55;;;;;;;27.80;48.05;101183.88;5092378;28;20054;-44
2022/09/07 10:42:15;;;;;;;8.82;3.30;;;;;;;28.31;45.71;101174.03;5092388;28;20027;-46
2022/09/07 10:45:01;;;;;;;9.35;3.28;;;;;;;28.56;47.22;101174.78;5091703;28;20036;-44
2022/09/07 10:47:54;;;;;;;9.68;2.90;;;;;;;28.35;44.92;101170.34;5092524;28;20093;-43
2022/09/07 10:50:54;;;;;;;12.73;3.67;;;;;;;28.61;45.53;101173.72;5091976;28;20028;-45
2022/09/07 10:53:26;;;;;;;10.45;3.40;;;;;;;29.33;42.50;101170.69;5059001;28;20094;-44
2022/09/07 10:56:02;;;;;;;7.57;3.20;;;;;;;28.69;44.45;101167.22;5094719;28;20099;-44
2022/09/07 10:58:38;;;;;;;9.75;2.70;;;;;;;27.79;44.29;101161.84;5095216;28;20045;-43
2022/09/07 11:01:18;;;;;;;10.90;2.97;;;;;;;27.77;46.43;101163.69;5095774;28;20024;-43
2022/09/07 11:04:10;;;;;;;6.78;2.20;;;;;;;27.15;47.09;101160.56;5096124;28;20066;-47
2022/09/07 11:06:49;;;;;;;7.47;2.10;;;;;;;26.19;48.40;101158.38;5095012;28;20060;-46
2022/09/07 11:09:55;;;;;;;7.75;2.17;;;;;;;25.31;49.95;101161.72;5095515;28;20023;-44
2022/09/07 11:12:27;;;;;;;9.15;2.50;;;;;;;24.93;50.35;101158.34;5094837;28;20032;-43
2022/09/07 11:14:59;;;;;;;9.43;2.33;;;;;;;25.36;48.68;101152.84;5095806;28;20032;-43
2022/09/07 11:17:28;;;;;;;8.98;2.10;;;;;;;26.30;48.29;101155.44;5095458;28;20124;-42
2022/09/07 11:20:07;;;;;;;8.60;2.40;;;;;;;27.40;45.84;101151.81;5097021;28;20292;-46
2022/09/07 11:22:35;;;;;;;7.93;2.35;;;;;;;27.37;43.85;101144.81;5095714;28;20020;-43
2022/09/07 11:25:16;;;;;;;15.15;2.67;;;;;;;27.57;43.73;101146.75;5097947;28;20035;-42
2022/09/07 11:28:20;;;;;;;6.40;2.03;;;;;;;28.33;43.27;101153.63;5115183;28;20077;-41